Time;durP1;ratioP1;P1;durP2;ratioP2;P2;SDS_P1;SDS_P2;PMS_P1;PMS_P2;Temp;Humidity;BMP_temperature;BMP_pressure;BME280_temperature;BME280_humidity;BME280_pressure;Samples;Min_cycle;Max_cycle;Signal;HPM_P1;HPM_P2
2021/03/02 00:01:04;;;;;;;0.10;0.10;;;;;;;0.65;97.71;102102.70;1730045;82;21150;-48
2021/03/02 00:04:08;;;;;;;0.10;0.10;;;;;;;0.64;97.70;102088.89;1730168;82;21210;-48
2021/03/02 00:07:08;;;;;;;0.10;0.10;;;;;;;0.63;97.69;102088.06;1730933;81;21146;-48
2021/03/02 00:10:14;;;;;;;0.10;0.10;;;;;;;0.64;97.66;102079.48;1730032;82;21907;-48
2021/03/02 00:13:16;;;;;;;0.10;0.10;;;;;;;0.65;97.58;102079.83;1730594;81;21469;-48
2021/03/02 00:16:17;;;;;;;0.68;0.20;;;;;;;0.65;97.53;102075.80;1783025;80;21139;-49
2021/03/02 00:19:20;;;;;;;0.30;0.30;;;;;;;0.66;97.48;102077.97;1782897;80;21209;-48
2021/03/02 00:22:29;;;;;;;0.10;0.10;;;;;;;0.66;97.38;102065.34;1782915;80;21185;-48
2021/03/02 00:25:37;;;;;;;0.10;0.10;;;;;;;0.67;97.29;102070.22;1726568;83;21189;-48
2021/03/02 00:28:38;;;;;;;0.65;0.42;;;;;;;0.66;97.22;102075.28;1726641;82;21126;-48
2021/03/02 00:31:38;;;;;;;0.30;0.30;;;;;;;0.66;97.14;102081.49;1732897;81;21158;-48
2021/03/02 00:34:39;;;;;;;0.00;0.00;;;;;;;0.67;97.04;102063.01;1727063;82;21635;-48
2021/03/02 00:37:39;;;;;;;0.10;0.10;;;;;;;0.67;96.95;102053.59;1756602;81;21549;-48
2021/03/02 00:40:39;;;;;;;0.25;0.25;;;;;;;0.67;96.85;102050.91;1726290;81;21143;-48
2021/03/02 00:43:40;;;;;;;0.55;0.33;;;;;;;0.69;96.75;102047.50;1756731;81;21122;-47
2021/03/02 00:46:40;;;;;;;1.20;0.72;;;;;;;0.70;96.69;102054.58;1756813;81;21163;-48
2021/03/02 00:49:41;;;;;;;0.05;0.05;;;;;;;0.69;96.66;102043.47;1737602;81;21201;-48
2021/03/02 00:52:41;;;;;;;0.20;0.20;;;;;;;0.69;96.62;102036.73;1756526;81;21157;-48
2021/03/02 00:55:43;;;;;;;0.10;0.10;;;;;;;0.71;96.52;102033.89;1756319;81;21539;-48
2021/03/02 00:58:44;;;;;;;0.15;0.15;;;;;;;0.71;96.46;102037.41;1754373;80;21165;-48
2021/03/02 01:01:45;;;;;;;0.08;0.08;;;;;;;0.71;96.41;102031.20;1778283;80;21153;-48
2021/03/02 01:04:45;;;;;;;0.78;0.78;;;;;;;0.72;96.28;102027.00;1769370;80;21173;-48
2021/03/02 01:07:45;;;;;;;0.05;0.05;;;;;;;0.74;96.18;102024.97;1772130;80;21194;-48
2021/03/02 01:10:46;;;;;;;0.17;0.17;;;;;;;0.73;96.13;102023.28;1769192;80;21129;-48
2021/03/02 01:13:50;;;;;;;0.25;0.20;;;;;;;0.74;96.07;102020.94;1768732;80;21125;-50
2021/03/02 01:16:50;;;;;;;0.23;0.23;;;;;;;0.75;96.00;102013.70;1732621;82;21569;-49
2021/03/02 01:19:51;;;;;;;0.25;0.25;;;;;;;0.74;95.91;102011.52;1732607;82;21663;-48
2021/03/02 01:22:51;;;;;;;0.10;0.10;;;;;;;0.74;95.83;102011.52;1733083;82;21589;-48
2021/03/02 01:25:52;;;;;;;0.33;0.33;;;;;;;0.74;95.78;102007.48;1733191;82;21494;-48
2021/03/02 01:28:52;;;;;;;0.75;0.40;;;;;;;0.74;95.70;101993.16;1740004;81;21132;-48
2021/03/02 01:31:52;;;;;;;1.50;0.33;;;;;;;0.74;95.61;101991.82;1749018;81;21158;-48
2021/03/02 01:34:53;;;;;;;0.30;0.30;;;;;;;0.76;95.53;101987.11;1731393;81;21299;-48
2021/03/02 01:37:53;;;;;;;0.35;0.35;;;;;;;0.77;95.36;101976.17;1759894;80;21594;-48
2021/03/02 01:40:54;;;;;;;0.10;0.10;;;;;;;0.79;95.18;101970.11;1733305;82;21128;-48
2021/03/02 01:43:57;;;;;;;0.10;0.10;;;;;;;0.81;95.04;101966.71;1760210;81;21128;-47
2021/03/02 01:46:57;;;;;;;0.37;0.37;;;;;;;0.82;94.91;101956.81;1733084;82;21144;-48
2021/03/02 01:49:58;;;;;;;0.20;0.20;;;;;;;0.83;94.76;101957.12;1744502;80;21699;-47
2021/03/02 01:52:58;;;;;;;1.07;0.57;;;;;;;0.82;94.59;101957.64;1760107;81;21206;-48
2021/03/02 01:55:59;;;;;;;0.00;0.00;;;;;;;0.84;94.46;101956.96;1791748;79;21577;-48
2021/03/02 01:58:59;;;;;;;0.10;0.10;;;;;;;0.85;94.30;101959.14;1791810;80;21431;-48
2021/03/02 02:02:00;;;;;;;0.15;0.15;;;;;;;0.85;94.11;101943.82;1760533;81;21138;-48
2021/03/02 02:05:03;;;;;;;0.10;0.10;;;;;;;0.85;93.97;101934.92;1741015;81;21437;-48
2021/03/02 02:08:08;;;;;;;0.10;0.10;;;;;;;0.86;93.81;101927.98;1733429;82;21166;-48
2021/03/02 02:11:14;;;;;;;0.00;0.00;;;;;;;0.87;93.64;101927.51;1756856;81;21161;-48
2021/03/02 02:14:31;;;;;;;0.10;0.10;;;;;;;0.88;93.50;101922.95;1741064;81;21251;-48
2021/03/02 02:17:57;;;;;;;0.03;0.03;;;;;;;0.90;93.30;101920.92;1758022;81;21143;-49
2021/03/02 02:21:15;;;;;;;0.00;0.00;;;;;;;0.92;93.07;101916.20;1734298;82;21215;-48
2021/03/02 02:24:30;;;;;;;0.00;0.00;;;;;;;0.92;92.91;101905.44;1733320;81;21313;-48
2021/03/02 02:27:30;;;;;;;0.00;0.00;;;;;;;0.93;92.74;101907.10;1732539;82;21165;-48
2021/03/02 02:30:30;;;;;;;0.10;0.10;;;;;;;0.94;92.60;101907.42;1732390;82;21122;-48
2021/03/02 02:33:35;;;;;;;0.00;0.00;;;;;;;0.93;92.47;101899.03;1732540;82;21150;-47
2021/03/02 02:36:35;;;;;;;0.25;0.25;;;;;;;0.94;92.28;101902.03;1709455;83;21172;-48
2021/03/02 02:39:37;;;;;;;0.80;0.42;;;;;;;0.95;92.15;101891.61;1730072;81;21184;-48
2021/03/02 02:42:38;;;;;;;0.10;0.10;;;;;;;0.96;92.01;101891.93;1750454;81;21625;-48
2021/03/02 02:45:38;;;;;;;0.13;0.13;;;;;;;0.96;91.81;101883.34;1750332;81;21122;-48
2021/03/02 02:48:38;;;;;;;0.17;0.17;;;;;;;0.98;91.64;101874.58;1711306;83;21142;-48
2021/03/02 02:51:39;;;;;;;0.00;0.00;;;;;;;1.00;91.36;101866.33;1755778;81;21604;-48
2021/03/02 02:54:39;;;;;;;0.20;0.20;;;;;;;1.02;91.16;101854.88;1732193;81;21174;-47
2021/03/02 02:57:44;;;;;;;0.10;0.10;;;;;;;1.07;90.86;101860.55;1756053;80;21572;-47
2021/03/02 03:00:44;;;;;;;0.00;0.00;;;;;;;1.09;90.66;101862.56;1787992;80;21442;-48
2021/03/02 03:03:51;;;;;;;0.10;0.10;;;;;;;1.10;90.49;101861.53;1787996;80;21170;-48
2021/03/02 03:06:51;;;;;;;0.10;0.10;;;;;;;1.12;90.32;101862.19;1787744;80;21178;-48
2021/03/02 03:09:54;;;;;;;0.00;0.00;;;;;;;1.13;90.07;101851.73;1787956;80;21149;-48
2021/03/02 03:12:55;;;;;;;0.05;0.05;;;;;;;1.14;89.94;101847.18;1785413;80;21811;-48
2021/03/02 03:16:00;;;;;;;;;;;;;;;1.13;89.86;101845.00;1759370;81;21160;-47
2021/03/02 03:19:04;;;;;;;0.10;0.10;;;;;;;1.14;89.72;101835.92;1770579;80;20273;-48
2021/03/02 03:22:05;;;;;;;0.35;0.35;;;;;;;1.14;89.67;101839.96;1769116;81;21202;-48
2021/03/02 03:25:05;;;;;;;0.10;0.10;;;;;;;1.13;89.52;101827.50;1756869;81;21146;-48
2021/03/02 03:28:08;;;;;;;0.00;0.00;;;;;;;1.16;89.43;101822.26;1750987;81;21150;-47
2021/03/02 03:31:09;;;;;;;0.10;0.10;;;;;;;1.17;89.35;101811.31;1747447;81;21213;-47
2021/03/02 03:34:09;;;;;;;0.13;0.13;;;;;;;1.17;89.30;101816.70;1734160;82;21134;-48
2021/03/02 03:37:10;;;;;;;0.20;0.20;;;;;;;1.15;89.25;101807.97;1716305;82;21155;-48
2021/03/02 03:40:11;;;;;;;0.05;0.05;;;;;;;1.16;89.19;101796.68;1736813;82;21181;-48
2021/03/02 03:43:12;;;;;;;0.30;0.30;;;;;;;1.14;89.13;101798.23;1737180;81;21530;-48
2021/03/02 03:46:13;;;;;;;0.00;0.00;;;;;;;1.14;89.04;101790.16;1736542;82;21442;-49
2021/03/02 03:49:13;;;;;;;0.10;0.10;;;;;;;1.14;89.01;101777.17;1750622;81;21118;-48
2021/03/02 03:52:14;;;;;;;0.47;0.47;;;;;;;1.13;88.94;101780.91;1722418;83;21613;-48
2021/03/02 03:55:15;;;;;;;0.10;0.10;;;;;;;1.13;88.95;101770.96;1752421;81;21119;-48
2021/03/02 03:58:22;;;;;;;0.00;0.00;;;;;;;1.12;88.82;101772.00;1722825;83;21110;-48
2021/03/02 04:01:22;;;;;;;0.17;0.17;;;;;;;1.14;88.73;101767.27;1752494;81;21217;-48
2021/03/02 04:04:23;;;;;;;0.10;0.10;;;;;;;1.13;88.64;101752.11;1737719;80;21589;-48
2021/03/02 04:07:24;;;;;;;0.10;0.10;;;;;;;1.11;88.54;101754.15;1783393;80;21146;-48
2021/03/02 04:10:24;;;;;;;0.00;0.00;;;;;;;1.09;88.48;101752.18;1763470;80;21189;-48
2021/03/02 04:13:24;;;;;;;0.00;0.00;;;;;;;1.04;88.49;101739.78;1762936;80;21426;-48
2021/03/02 04:16:25;;;;;;;0.10;0.10;;;;;;;0.99;88.59;101736.78;1766969;80;21603;-49
2021/03/02 04:19:25;;;;;;;0.00;0.00;;;;;;;0.93;88.67;101734.33;1744761;81;21162;-48
2021/03/02 04:22:26;;;;;;;0.10;0.10;;;;;;;0.89;88.79;101728.14;1768535;80;21652;-48
2021/03/02 04:25:26;;;;;;;0.03;0.03;;;;;;;0.83;88.91;101723.83;1777938;80;21170;-48
2021/03/02 04:28:26;;;;;;;0.03;0.03;;;;;;;0.78;89.08;101720.86;1766832;80;21184;-48
2021/03/02 04:31:27;;;;;;;0.30;0.30;;;;;;;0.75;89.26;101713.67;1724019;83;21136;-48
2021/03/02 04:34:28;;;;;;;0.20;0.20;;;;;;;0.74;89.36;101720.92;1737201;82;21171;-48
2021/03/02 04:37:29;;;;;;;0.00;0.00;;;;;;;0.71;89.51;101718.57;1720195;82;21161;-47
2021/03/02 04:40:29;;;;;;;0.00;0.00;;;;;;;0.68;89.65;101716.25;1724126;83;21178;-48
2021/03/02 04:43:30;;;;;;;0.00;0.00;;;;;;;0.66;89.81;101712.91;1713517;81;21162;-48
2021/03/02 04:46:30;;;;;;;0.00;0.00;;;;;;;0.63;89.99;101711.41;1717154;81;21130;-48
2021/03/02 04:49:31;;;;;;;0.08;0.08;;;;;;;0.61;90.11;101705.38;1747230;81;21103;-48
2021/03/02 04:52:32;;;;;;;0.37;0.37;;;;;;;0.60;90.27;101696.16;1740699;81;21138;-48
2021/03/02 04:55:33;;;;;;;0.20;0.20;;;;;;;0.62;90.42;101698.17;1740805;81;21636;-48
2021/03/02 04:58:33;;;;;;;0.00;0.00;;;;;;;0.63;90.49;101699.83;1735770;81;21166;-48
2021/03/02 05:01:34;;;;;;;0.45;0.45;;;;;;;0.66;90.59;101686.00;1751965;81;21173;-49
2021/03/02 05:04:34;;;;;;;0.42;0.42;;;;;;;0.72;90.61;101687.11;1729171;81;21158;-49
2021/03/02 05:07:35;;;;;;;0.28;0.28;;;;;;;0.77;90.54;101676.14;1718494;81;21170;-48
2021/03/02 05:10:35;;;;;;;0.10;0.10;;;;;;;0.78;90.47;101680.49;1741686;80;21181;-48
2021/03/02 05:13:37;;;;;;;0.10;0.10;;;;;;;0.80;90.53;101671.73;1747369;81;21125;-49
2021/03/02 05:16:38;;;;;;;0.10;0.10;;;;;;;0.86;90.49;101660.73;1763741;80;21508;-48
2021/03/02 05:19:38;;;;;;;0.17;0.17;;;;;;;0.92;90.40;101655.97;1772437;80;21122;-49
2021/03/02 05:22:39;;;;;;;0.28;0.28;;;;;;;0.99;90.27;101654.69;1745021;80;21580;-48
2021/03/02 05:25:40;;;;;;;0.45;0.45;;;;;;;1.08;90.06;101652.23;1722361;82;21169;-48
2021/03/02 05:28:41;;;;;;;0.40;0.40;;;;;;;1.17;89.80;101655.67;1734517;81;21162;-49
2021/03/02 05:31:43;;;;;;;7.60;2.83;;;;;;;1.25;89.43;101659.08;1724389;83;21139;-48
2021/03/02 05:34:44;;;;;;;11.70;3.92;;;;;;;1.36;89.07;101648.84;1740903;81;21154;-49
2021/03/02 05:37:45;;;;;;;3.72;2.52;;;;;;;1.43;88.75;101641.67;1725597;82;21219;-48
2021/03/02 05:40:46;;;;;;;5.85;5.28;;;;;;;1.51;88.45;101633.49;1749688;81;21185;-48
2021/03/02 05:43:48;;;;;;;7.72;4.97;;;;;;;1.62;87.99;101638.36;1738348;81;21172;-48
2021/03/02 05:46:51;;;;;;;5.97;3.72;;;;;;;1.73;87.43;101620.84;1749919;81;21106;-49
2021/03/02 05:49:52;;;;;;;11.90;3.83;;;;;;;1.85;86.92;101622.52;1768901;80;21137;-48
2021/03/02 05:52:53;;;;;;;6.10;3.20;;;;;;;1.94;86.50;101622.72;1754146;81;21158;-49
2021/03/02 05:55:53;;;;;;;3.87;2.20;;;;;;;2.04;85.85;101625.09;1747118;80;21134;-49
2021/03/02 05:59:00;;;;;;;1.70;1.42;;;;;;;2.14;85.39;101629.11;1761852;80;21150;-49
2021/03/02 06:02:01;;;;;;;8.65;2.60;;;;;;;2.23;84.77;101626.30;1768970;80;21185;-49
2021/03/02 06:05:03;;;;;;;9.28;5.78;;;;;;;2.28;84.26;101625.19;1757403;81;21135;-48
2021/03/02 06:08:03;;;;;;;0.82;0.82;;;;;;;2.27;84.10;101631.07;1759124;80;21158;-48
2021/03/02 06:11:05;;;;;;;0.75;0.75;;;;;;;2.28;84.00;101646.77;1733386;81;21158;-49
2021/03/02 06:14:31;;;;;;;0.10;0.10;;;;;;;2.31;83.89;101630.19;1732226;81;21551;-48
2021/03/02 06:17:31;;;;;;;0.10;0.10;;;;;;;2.35;83.75;101636.86;1744933;81;21177;-48
2021/03/02 06:20:32;;;;;;;0.20;0.20;;;;;;;2.35;83.67;101642.27;1752235;81;21133;-49
2021/03/02 06:23:35;;;;;;;0.30;0.20;;;;;;;2.35;83.67;101646.30;1732639;81;21456;-48
2021/03/02 06:26:38;;;;;;;0.10;0.10;;;;;;;2.32;83.77;101654.77;1736653;82;21544;-48
2021/03/02 06:29:37;;;;;;;0.10;0.10;;;;;;;2.29;83.75;101660.56;1752306;81;21136;-49
2021/03/02 06:32:47;;;;;;;0.10;0.10;;;;;;;2.26;83.83;101655.05;1727680;81;21170;-49
2021/03/02 06:35:48;;;;;;;0.25;0.20;;;;;;;2.23;84.02;101661.35;1766954;81;21402;-49
2021/03/02 06:38:49;;;;;;;0.10;0.10;;;;;;;2.23;84.05;101661.35;1763322;81;21173;-49
2021/03/02 06:41:50;;;;;;;0.00;0.00;;;;;;;2.21;84.11;101661.53;1792585;79;21610;-48
2021/03/02 06:45:00;;;;;;;0.00;0.00;;;;;;;2.19;84.29;101648.75;1779284;79;21126;-48
2021/03/02 06:48:10;;;;;;;0.00;0.00;;;;;;;2.17;84.48;101652.16;1781222;80;21126;-49
2021/03/02 06:51:10;;;;;;;0.10;0.10;;;;;;;2.17;84.52;101641.89;1765484;80;21179;-48
2021/03/02 06:54:25;;;;;;;0.42;0.42;;;;;;;2.17;84.73;101645.94;1733414;82;21137;-49
2021/03/02 06:57:30;;;;;;;0.10;0.10;;;;;;;2.16;84.83;101645.11;1733329;82;21452;-49
2021/03/02 07:00:39;;;;;;;0.17;0.17;;;;;;;2.17;84.76;101648.62;1751120;81;21149;-48
2021/03/02 07:03:40;;;;;;;0.17;0.17;;;;;;;2.17;84.69;101643.23;1741339;81;21177;-49
2021/03/02 07:06:42;;;;;;;1.55;0.37;;;;;;;2.17;84.76;101641.89;1762049;81;21402;-49
2021/03/02 07:09:43;;;;;;;0.40;0.40;;;;;;;2.17;84.82;101641.37;1783942;79;21139;-49
2021/03/02 07:12:45;;;;;;;5.10;1.50;;;;;;;2.18;84.72;101632.27;1765248;81;21208;-48
2021/03/02 07:15:45;;;;;;;0.10;0.10;;;;;;;2.19;84.60;101619.09;1780186;79;21837;-48
2021/03/02 07:18:47;;;;;;;0.60;0.50;;;;;;;2.20;84.91;101630.70;1790958;79;21149;-48
2021/03/02 07:21:49;;;;;;;0.30;0.30;;;;;;;2.21;84.90;101626.47;1763936;81;21134;-48
2021/03/02 07:24:50;;;;;;;0.53;0.53;;;;;;;2.27;84.90;101622.16;1774145;79;21137;-49
2021/03/02 07:27:50;;;;;;;0.53;0.53;;;;;;;2.31;84.62;101620.22;1770012;80;21594;-48
2021/03/02 07:30:54;;;;;;;1.35;0.85;;;;;;;2.35;84.65;101616.63;1789798;79;21118;-49
2021/03/02 07:33:54;;;;;;;0.33;0.33;;;;;;;2.40;84.51;101631.72;1762978;79;21122;-48
2021/03/02 07:36:56;;;;;;;0.17;0.17;;;;;;;2.42;84.35;101630.15;1768917;79;21137;-48
2021/03/02 07:40:13;;;;;;;1.40;1.30;;;;;;;2.42;84.07;101622.88;1731080;81;21177;-48
2021/03/02 07:43:36;;;;;;;0.85;0.78;;;;;;;2.39;84.19;101631.90;1716622;82;21167;-48
2021/03/02 07:46:47;;;;;;;0.20;0.20;;;;;;;2.36;84.27;101622.34;1729660;82;21523;-49
2021/03/02 07:49:50;;;;;;;0.90;0.72;;;;;;;2.33;84.30;101626.27;1716911;83;21239;-48
2021/03/02 07:52:50;;;;;;;0.15;0.15;;;;;;;2.28;84.46;101631.93;1750461;81;21141;-48
2021/03/02 07:56:15;;;;;;;0.98;0.72;;;;;;;2.25;84.70;101626.91;1759082;80;21173;-49
2021/03/02 07:59:22;;;;;;;1.12;1.12;;;;;;;2.22;84.97;101632.70;1638738;87;22764;-48
2021/03/02 08:02:26;;;;;;;1.15;1.00;;;;;;;2.20;85.12;101633.41;1759464;81;21138;-48
2021/03/02 08:05:36;;;;;;;0.10;0.10;;;;;;;2.16;85.20;101631.62;1753163;81;21113;-49
2021/03/02 08:08:38;;;;;;;0.30;0.30;;;;;;;2.10;85.34;101619.76;1754136;81;21154;-48
2021/03/02 08:11:43;;;;;;;0.95;0.57;;;;;;;2.07;85.58;101633.61;1758841;81;21696;-48
2021/03/02 08:14:44;;;;;;;0.10;0.10;;;;;;;2.05;85.78;101633.48;1758436;81;21575;-49
2021/03/02 08:17:45;;;;;;;1.98;1.55;;;;;;;2.00;86.11;101637.27;1750016;81;21126;-49
2021/03/02 08:21:22;;;;;;;0.10;0.10;;;;;;;1.97;86.29;101630.41;1757734;80;21445;-49
2021/03/02 08:24:21;;;;;;;0.08;0.08;;;;;;;1.97;86.39;101632.28;1703413;83;21122;-49
2021/03/02 08:27:45;;;;;;;0.10;0.10;;;;;;;1.96;86.75;101631.97;1729551;82;21592;-49
2021/03/02 08:30:45;;;;;;;0.20;0.10;;;;;;;1.95;86.81;101631.11;1759667;80;21153;-48
2021/03/02 08:33:47;;;;;;;0.17;0.17;;;;;;;1.93;86.92;101629.15;1747209;82;21575;-49
2021/03/02 08:36:47;;;;;;;0.10;0.10;;;;;;;1.94;86.90;101628.94;1726267;82;21133;-49
2021/03/02 08:39:48;;;;;;;0.30;0.30;;;;;;;1.99;86.84;101620.27;1734598;82;21150;-48
2021/03/02 08:43:18;;;;;;;0.75;0.40;;;;;;;2.01;86.86;101624.96;1720420;82;21101;-48
2021/03/02 08:46:17;;;;;;;0.28;0.28;;;;;;;2.02;86.89;101623.92;1737417;82;21425;-48
2021/03/02 08:49:18;;;;;;;0.10;0.10;;;;;;;2.03;86.90;101624.26;1718640;82;21272;-49
2021/03/02 08:52:19;;;;;;;0.30;0.30;;;;;;;2.00;86.84;101612.48;1718357;82;21453;-49
2021/03/02 08:55:19;;;;;;;0.10;0.10;;;;;;;1.97;86.84;101623.67;1741983;82;21182;-49
2021/03/02 08:58:19;;;;;;;0.88;0.85;;;;;;;1.93;87.02;101615.67;1741984;82;21213;-49
2021/03/02 09:01:33;;;;;;;0.82;0.82;;;;;;;1.89;87.07;101605.77;1730367;82;21181;-49
2021/03/02 09:04:39;;;;;;;0.33;0.33;;;;;;;1.90;87.30;101618.73;1713849;82;21149;-49
2021/03/02 09:07:39;;;;;;;0.53;0.53;;;;;;;1.88;87.44;101603.26;1728780;80;21126;-49
2021/03/02 09:10:41;;;;;;;2.90;0.42;;;;;;;1.88;87.42;101597.87;1711962;83;21130;-49
2021/03/02 09:13:45;;;;;;;2.17;0.55;;;;;;;1.89;87.34;101594.16;1711367;83;21204;-49
2021/03/02 09:16:52;;;;;;;0.40;0.40;;;;;;;1.87;87.66;101595.69;1733272;82;21138;-49
2021/03/02 09:19:52;;;;;;;0.30;0.28;;;;;;;1.90;87.76;101593.13;1735950;81;21146;-49
2021/03/02 09:23:01;;;;;;;0.10;0.10;;;;;;;1.90;87.76;101600.72;1740121;81;38951;-50
2021/03/02 09:26:02;;;;;;;0.85;0.85;;;;;;;1.94;87.80;101593.06;1741051;81;21137;-50
2021/03/02 09:29:07;;;;;;;0.10;0.10;;;;;;;1.94;87.48;101595.23;1736645;81;21157;-50
2021/03/02 09:32:10;;;;;;;0.35;0.35;;;;;;;1.92;87.50;101610.77;1737237;82;21189;-50
2021/03/02 09:35:13;;;;;;;1.50;0.72;;;;;;;1.91;87.38;101605.59;1736397;82;21151;-50
2021/03/02 09:38:14;;;;;;;0.30;0.30;;;;;;;1.91;87.48;101612.33;1721367;81;21152;-50
2021/03/02 09:41:14;;;;;;;1.37;1.12;;;;;;;1.91;87.52;101601.55;1764184;81;21493;-49
2021/03/02 09:44:38;;;;;;;1.65;1.25;;;;;;;1.91;87.53;101598.85;1757411;81;21193;-50
2021/03/02 09:47:41;;;;;;;0.20;0.20;;;;;;;1.91;87.65;101604.24;1759340;81;21171;-50
2021/03/02 09:50:44;;;;;;;0.10;0.10;;;;;;;1.88;87.71;101591.12;1790744;80;21154;-50
2021/03/02 09:53:45;;;;;;;0.10;0.10;;;;;;;1.86;87.81;101591.34;1737391;80;21126;-50
2021/03/02 09:56:45;;;;;;;0.10;0.10;;;;;;;1.85;87.92;101591.52;1731483;81;21142;-49
2021/03/02 09:59:46;;;;;;;0.30;0.30;;;;;;;1.87;87.90;101592.17;1734406;81;21497;-50
2021/03/02 10:03:02;;;;;;;0.42;0.42;;;;;;;1.88;87.96;101581.69;1759814;81;21154;-49
2021/03/02 10:06:10;;;;;;;8.03;1.35;;;;;;;1.91;87.95;101568.68;1752517;80;21122;-49
2021/03/02 10:09:10;;;;;;;0.33;0.33;;;;;;;1.95;87.69;101559.67;1738340;82;21540;-50
2021/03/02 10:12:18;;;;;;;3.52;0.88;;;;;;;1.99;87.36;101567.70;1696509;82;21686;-50
2021/03/02 10:15:29;;;;;;;0.10;0.10;;;;;;;2.01;87.08;101572.91;1738823;81;21213;-49
2021/03/02 10:18:32;;;;;;;0.95;0.95;;;;;;;1.99;86.98;101569.57;1740885;81;21157;-49
2021/03/02 10:21:51;;;;;;;0.35;0.33;;;;;;;1.97;87.01;101561.66;1761908;80;29166;-50
2021/03/02 10:24:52;;;;;;;2.10;1.60;;;;;;;1.94;87.19;101558.02;1743456;81;21165;-50
2021/03/02 10:28:04;;;;;;;2.40;1.12;;;;;;;1.92;87.25;101545.24;1738635;82;21181;-50
2021/03/02 10:31:06;;;;;;;0.47;0.47;;;;;;;1.92;87.12;101549.29;1739872;81;21165;-50
2021/03/02 10:34:07;;;;;;;0.35;0.35;;;;;;;1.90;87.29;101544.11;1740518;81;21158;-50
2021/03/02 10:37:08;;;;;;;0.62;0.62;;;;;;;1.92;87.06;101538.51;1746574;81;21635;-49
2021/03/02 10:40:11;;;;;;;0.20;0.20;;;;;;;1.91;87.13;101543.07;1737568;81;21129;-49
2021/03/02 10:43:12;;;;;;;0.88;0.88;;;;;;;1.89;87.30;101542.42;1741887;81;21114;-50
2021/03/02 10:46:12;;;;;;;0.10;0.10;;;;;;;1.89;87.28;101538.38;1760831;81;21185;-50
2021/03/02 10:49:13;;;;;;;0.80;0.80;;;;;;;1.84;87.45;101527.88;1753669;81;21159;-50
2021/03/02 10:52:07;;;;;;;0.93;0.85;;;;;;;1.81;87.58;101523.71;1743415;81;21166;-50
2021/03/02 10:55:07;;;;;;;1.65;0.40;;;;;;;1.80;87.66;101510.42;1771724;80;21127;-49
2021/03/02 10:58:08;;;;;;;1.12;0.82;;;;;;;1.79;87.63;101510.11;1764811;80;21138;-49
2021/03/02 11:01:09;;;;;;;0.35;0.35;;;;;;;1.79;87.81;101496.64;1768670;80;21118;-49
2021/03/02 11:04:10;;;;;;;1.22;1.15;;;;;;;1.78;87.82;101508.43;1787849;80;21138;-50
2021/03/02 11:07:10;;;;;;;0.35;0.35;;;;;;;1.76;87.92;101505.13;1780257;80;21159;-49
2021/03/02 11:10:12;;;;;;;0.65;0.53;;;;;;;1.77;87.85;101508.13;1782707;80;21134;-51
2021/03/02 11:13:13;;;;;;;0.30;0.30;;;;;;;1.78;87.73;101511.13;1772544;80;21174;-51
2021/03/02 11:16:12;;;;;;;0.60;0.60;;;;;;;1.77;87.58;101502.21;1784429;80;21141;-51
2021/03/02 11:19:14;;;;;;;0.23;0.23;;;;;;;1.79;87.60;101497.98;1787906;80;21150;-49
2021/03/02 11:22:14;;;;;;;1.70;0.85;;;;;;;1.78;87.61;101466.66;1787491;80;21181;-50
2021/03/02 11:25:19;;;;;;;3.65;1.52;;;;;;;1.81;87.68;101473.02;1764056;80;21125;-50
2021/03/02 11:28:19;;;;;;;1.95;0.85;;;;;;;1.81;87.72;101461.72;1735982;82;21175;-50
2021/03/02 11:31:19;;;;;;;1.92;0.62;;;;;;;1.86;87.70;101456.57;1756392;81;21206;-50
2021/03/02 11:34:21;;;;;;;2.42;0.33;;;;;;;1.90;87.53;101455.65;1733462;81;21272;-50
2021/03/02 11:37:21;;;;;;;0.82;0.82;;;;;;;1.92;87.45;101444.16;1786712;80;21146;-49
2021/03/02 11:40:24;;;;;;;2.30;0.95;;;;;;;1.93;87.47;101440.45;1763661;80;21502;-50
2021/03/02 11:43:27;;;;;;;1.55;1.15;;;;;;;1.94;87.54;101434.02;1756464;81;21139;-50
2021/03/02 11:46:28;;;;;;;0.50;0.47;;;;;;;1.95;87.46;101432.97;1756365;81;21130;-49
2021/03/02 11:49:28;;;;;;;1.10;0.80;;;;;;;1.96;87.55;101429.27;1756317;80;21146;-51
2021/03/02 11:52:29;;;;;;;1.10;0.95;;;;;;;1.97;87.50;101431.44;1724785;83;21183;-50
2021/03/02 11:55:30;;;;;;;0.42;0.42;;;;;;;1.94;87.64;101427.28;1755939;80;21134;-49
2021/03/02 11:58:31;;;;;;;0.10;0.10;;;;;;;1.92;87.87;101426.64;1743567;81;21161;-50
2021/03/02 12:01:32;;;;;;;0.10;0.10;;;;;;;1.89;87.97;101408.17;1742845;81;21390;-50
2021/03/02 12:04:33;;;;;;;0.72;0.47;;;;;;;1.88;88.17;101398.41;1778524;80;21388;-50
2021/03/02 12:07:38;;;;;;;0.28;0.28;;;;;;;1.89;88.29;101401.44;1744656;80;21146;-50
2021/03/02 12:10:38;;;;;;;0.50;0.50;;;;;;;1.93;88.12;101400.84;1750033;81;21118;-49
2021/03/02 12:13:39;;;;;;;0.57;0.57;;;;;;;1.95;87.96;101388.50;1750507;81;21456;-50
2021/03/02 12:16:40;;;;;;;0.98;0.45;;;;;;;1.97;87.85;101377.00;1744473;81;21157;-49
2021/03/02 12:19:41;;;;;;;0.72;0.72;;;;;;;2.01;87.63;101378.80;1756725;80;21447;-50
2021/03/02 12:22:42;;;;;;;0.95;0.60;;;;;;;2.03;87.57;101365.44;1778529;80;21549;-51
2021/03/02 12:25:44;;;;;;;0.70;0.68;;;;;;;2.04;87.24;101369.78;1761158;80;21916;-50
2021/03/02 12:28:46;;;;;;;0.20;0.20;;;;;;;2.05;87.05;101352.59;1765397;80;21102;-50
2021/03/02 12:31:48;;;;;;;0.57;0.57;;;;;;;2.07;87.16;101354.55;1752336;81;21421;-50
2021/03/02 12:34:49;;;;;;;1.12;1.02;;;;;;;2.08;86.88;101362.97;1743437;81;21522;-50
2021/03/02 12:37:50;;;;;;;2.85;0.78;;;;;;;2.05;86.82;101348.55;1770536;80;21127;-50
2021/03/02 12:40:51;;;;;;;0.55;0.55;;;;;;;2.03;86.78;101358.70;1747046;81;21122;-50
2021/03/02 12:43:51;;;;;;;0.30;0.30;;;;;;;2.01;86.73;101344.58;1727732;81;21162;-50
2021/03/02 12:46:52;;;;;;;0.17;0.17;;;;;;;2.01;86.66;101340.53;1725899;81;21226;-49
2021/03/02 12:49:52;;;;;;;0.40;0.40;;;;;;;1.96;86.86;101351.09;1782803;80;21576;-50
2021/03/02 12:52:53;;;;;;;0.28;0.28;;;;;;;1.93;86.96;101354.20;1758037;80;21142;-50
2021/03/02 12:55:53;;;;;;;1.45;1.35;;;;;;;1.91;87.11;101349.52;1757597;80;21130;-49
2021/03/02 12:58:53;;;;;;;2.20;1.50;;;;;;;1.91;87.18;101359.77;1756669;81;21134;-50
2021/03/02 13:01:55;;;;;;;1.30;1.20;;;;;;;1.93;87.16;101340.72;1726599;83;21159;-50
2021/03/02 13:04:56;;;;;;;0.15;0.15;;;;;;;1.90;87.25;101333.00;1772951;80;21135;-49
2021/03/02 13:07:57;;;;;;;0.13;0.13;;;;;;;1.92;87.29;101337.69;1787973;80;21454;-49
2021/03/02 13:10:57;;;;;;;0.80;0.78;;;;;;;1.90;87.34;101324.92;1726470;83;21177;-50
2021/03/02 13:13:57;;;;;;;1.17;0.47;;;;;;;1.88;87.44;101325.14;1758502;80;21139;-50
2021/03/02 13:16:58;;;;;;;0.40;0.40;;;;;;;1.87;87.56;101317.24;1766016;80;21158;-50
2021/03/02 13:19:58;;;;;;;3.20;0.93;;;;;;;1.87;87.74;101311.85;1757056;80;21236;-49
2021/03/02 13:22:58;;;;;;;0.82;0.82;;;;;;;1.87;87.75;101310.50;1743179;80;21134;-50
2021/03/02 13:26:00;;;;;;;0.80;0.80;;;;;;;1.88;87.73;101313.50;1782962;80;21111;-51
2021/03/02 13:29:00;;;;;;;0.10;0.10;;;;;;;1.87;87.59;101311.33;1758897;80;21114;-50
2021/03/02 13:32:03;;;;;;;0.50;0.50;;;;;;;1.88;87.66;101305.42;1760601;80;21119;-50
2021/03/02 13:35:05;;;;;;;0.10;0.10;;;;;;;1.87;87.51;101297.03;1766516;80;21151;-49
2021/03/02 13:38:08;;;;;;;0.55;0.55;;;;;;;1.85;87.47;101286.44;1765183;80;21426;-49
2021/03/02 13:41:08;;;;;;;0.20;0.20;;;;;;;1.85;87.58;101290.48;1775725;80;21417;-49
2021/03/02 13:44:08;;;;;;;0.60;0.60;;;;;;;1.85;87.61;101286.96;1758099;80;21163;-50
2021/03/02 13:47:09;;;;;;;1.67;1.57;;;;;;;1.83;87.57;101276.89;1748980;81;21199;-50
2021/03/02 13:50:11;;;;;;;0.75;0.75;;;;;;;1.82;87.49;101281.45;1755002;81;21166;-49
2021/03/02 13:53:11;;;;;;;1.25;1.07;;;;;;;1.82;87.54;101268.50;1788123;80;21561;-49
2021/03/02 13:56:12;;;;;;;0.65;0.65;;;;;;;1.80;87.64;101273.26;1765975;80;21600;-50
2021/03/02 13:59:12;;;;;;;0.50;0.50;;;;;;;1.80;87.62;101266.00;1752165;80;21123;-50
2021/03/02 14:02:13;;;;;;;1.02;1.02;;;;;;;1.79;87.70;101262.17;1757109;80;21185;-49
2021/03/02 14:05:14;;;;;;;0.15;0.15;;;;;;;1.80;87.52;101253.87;1704683;82;21009;-50
2021/03/02 14:08:15;;;;;;;0.10;0.10;;;;;;;1.81;87.43;101247.47;1753653;80;21120;-50
2021/03/02 14:11:17;;;;;;;1.75;0.53;;;;;;;1.82;87.33;101256.38;1753799;81;21194;-50
2021/03/02 14:14:17;;;;;;;0.85;0.85;;;;;;;1.81;87.37;101261.47;1787779;80;21239;-50
2021/03/02 14:17:21;;;;;;;3.02;0.80;;;;;;;1.81;87.33;101261.47;1787939;80;21146;-50
2021/03/02 14:20:22;;;;;;;0.95;0.90;;;;;;;1.81;87.25;101274.94;1756129;81;21147;-50